sensor_id;sensor_type;location;lat;lon;timestamp;P1;durP1;ratioP1;P2;durP2;ratioP2
36715;SDS011;22699;51.034;3.730;2023-06-10T00:00:34;7.78;;;7.10;;
36715;SDS011;22699;51.034;3.730;2023-06-10T00:02:59;8.80;;;6.63;;
36715;SDS011;22699;51.034;3.730;2023-06-10T00:05:25;7.93;;;6.60;;
36715;SDS011;22699;51.034;3.730;2023-06-10T00:07:55;9.25;;;7.95;;
36715;SDS011;22699;51.034;3.730;2023-06-10T00:10:21;8.30;;;6.82;;
36715;SDS011;22699;51.034;3.730;2023-06-10T00:12:47;7.28;;;6.57;;
36715;SDS011;22699;51.034;3.730;2023-06-10T00:15:13;6.30;;;5.70;;
36715;SDS011;22699;51.034;3.730;2023-06-10T00:17:39;8.23;;;7.38;;
36715;SDS011;22699;51.034;3.730;2023-06-10T00:20:09;7.55;;;6.75;;
36715;SDS011;22699;51.034;3.730;2023-06-10T00:22:37;8.13;;;7.20;;
36715;SDS011;22699;51.034;3.730;2023-06-10T00:25:04;8.63;;;6.47;;
36715;SDS011;22699;51.034;3.730;2023-06-10T00:27:31;12.98;;;7.40;;
36715;SDS011;22699;51.034;3.730;2023-06-10T00:30:00;9.18;;;6.88;;
36715;SDS011;22699;51.034;3.730;2023-06-10T00:32:33;8.93;;;7.13;;
36715;SDS011;22699;51.034;3.730;2023-06-10T00:35:01;9.13;;;6.85;;
36715;SDS011;22699;51.034;3.730;2023-06-10T00:37:30;8.00;;;7.18;;
36715;SDS011;22699;51.034;3.730;2023-06-10T00:39:57;7.53;;;6.65;;
36715;SDS011;22699;51.034;3.730;2023-06-10T00:42:22;7.90;;;6.13;;
36715;SDS011;22699;51.034;3.730;2023-06-10T00:44:52;10.05;;;6.85;;
36715;SDS011;22699;51.034;3.730;2023-06-10T00:47:19;7.28;;;6.55;;
36715;SDS011;22699;51.034;3.730;2023-06-10T00:49:51;8.88;;;6.57;;
36715;SDS011;22699;51.034;3.730;2023-06-10T00:52:17;11.18;;;7.05;;
36715;SDS011;22699;51.034;3.730;2023-06-10T00:57:13;8.88;;;6.60;;
36715;SDS011;22699;51.034;3.730;2023-06-10T00:59:40;7.80;;;7.10;;
36715;SDS011;22699;51.034;3.730;2023-06-10T01:02:08;7.68;;;6.85;;
36715;SDS011;22699;51.034;3.730;2023-06-10T01:04:34;7.20;;;6.50;;
36715;SDS011;22699;51.034;3.730;2023-06-10T01:12:41;8.88;;;6.25;;
36715;SDS011;22699;51.034;3.730;2023-06-10T01:15:18;8.10;;;7.30;;
36715;SDS011;22699;51.034;3.730;2023-06-10T01:18:01;7.95;;;7.22;;
36715;SDS011;22699;51.034;3.730;2023-06-10T01:20:30;7.45;;;6.75;;
36715;SDS011;22699;51.034;3.730;2023-06-10T01:23:00;9.20;;;7.38;;
36715;SDS011;22699;51.034;3.730;2023-06-10T01:25:30;10.35;;;7.22;;
36715;SDS011;22699;51.034;3.730;2023-06-10T01:28:10;9.38;;;7.20;;
36715;SDS011;22699;51.034;3.730;2023-06-10T01:31:03;9.15;;;7.00;;
36715;SDS011;22699;51.034;3.730;2023-06-10T01:33:42;7.95;;;6.97;;
36715;SDS011;22699;51.034;3.730;2023-06-10T01:36:11;7.53;;;6.78;;
36715;SDS011;22699;51.034;3.730;2023-06-10T01:38:46;10.30;;;7.40;;
36715;SDS011;22699;51.034;3.730;2023-06-10T01:41:13;9.40;;;7.22;;
36715;SDS011;22699;51.034;3.730;2023-06-10T01:43:42;7.70;;;7.00;;
36715;SDS011;22699;51.034;3.730;2023-06-10T01:46:09;8.18;;;7.32;;
36715;SDS011;22699;51.034;3.730;2023-06-10T01:48:35;10.05;;;7.50;;
36715;SDS011;22699;51.034;3.730;2023-06-10T01:51:00;8.43;;;6.68;;
36715;SDS011;22699;51.034;3.730;2023-06-10T01:53:26;8.50;;;7.30;;
36715;SDS011;22699;51.034;3.730;2023-06-10T01:55:52;12.05;;;7.13;;
36715;SDS011;22699;51.034;3.730;2023-06-10T01:58:17;8.32;;;7.30;;
36715;SDS011;22699;51.034;3.730;2023-06-10T02:00:43;8.82;;;7.28;;
36715;SDS011;22699;51.034;3.730;2023-06-10T02:03:09;9.27;;;8.07;;
36715;SDS011;22699;51.034;3.730;2023-06-10T02:05:34;10.88;;;7.55;;
36715;SDS011;22699;51.034;3.730;2023-06-10T02:08:01;10.18;;;8.32;;
36715;SDS011;22699;51.034;3.730;2023-06-10T02:10:28;8.35;;;7.55;;
36715;SDS011;22699;51.034;3.730;2023-06-10T02:12:53;8.35;;;7.55;;
36715;SDS011;22699;51.034;3.730;2023-06-10T02:15:20;8.05;;;7.05;;
36715;SDS011;22699;51.034;3.730;2023-06-10T02:17:45;9.15;;;7.50;;
36715;SDS011;22699;51.034;3.730;2023-06-10T02:20:11;11.43;;;8.30;;
36715;SDS011;22699;51.034;3.730;2023-06-10T02:22:38;8.88;;;7.70;;
36715;SDS011;22699;51.034;3.730;2023-06-10T02:25:04;8.60;;;7.80;;
36715;SDS011;22699;51.034;3.730;2023-06-10T02:27:30;11.00;;;8.07;;
36715;SDS011;22699;51.034;3.730;2023-06-10T02:29:56;9.95;;;8.13;;
36715;SDS011;22699;51.034;3.730;2023-06-10T02:32:22;8.80;;;7.68;;
36715;SDS011;22699;51.034;3.730;2023-06-10T02:34:49;8.38;;;7.30;;
36715;SDS011;22699;51.034;3.730;2023-06-10T02:37:15;11.43;;;7.65;;
36715;SDS011;22699;51.034;3.730;2023-06-10T02:39:41;9.18;;;8.13;;
36715;SDS011;22699;51.034;3.730;2023-06-10T02:42:07;10.15;;;7.97;;
36715;SDS011;22699;51.034;3.730;2023-06-10T02:44:33;9.85;;;8.40;;
36715;SDS011;22699;51.034;3.730;2023-06-10T02:46:59;8.90;;;7.40;;
36715;SDS011;22699;51.034;3.730;2023-06-10T02:49:24;10.55;;;8.65;;
36715;SDS011;22699;51.034;3.730;2023-06-10T02:51:52;10.07;;;8.02;;
36715;SDS011;22699;51.034;3.730;2023-06-10T02:54:21;9.07;;;8.18;;
36715;SDS011;22699;51.034;3.730;2023-06-10T02:56:50;14.55;;;7.93;;
36715;SDS011;22699;51.034;3.730;2023-06-10T02:59:16;9.48;;;8.38;;
36715;SDS011;22699;51.034;3.730;2023-06-10T03:01:42;10.82;;;9.15;;
36715;SDS011;22699;51.034;3.730;2023-06-10T03:04:08;9.48;;;8.48;;
36715;SDS011;22699;51.034;3.730;2023-06-10T03:06:34;8.65;;;7.70;;
36715;SDS011;22699;51.034;3.730;2023-06-10T03:09:01;9.75;;;8.00;;
36715;SDS011;22699;51.034;3.730;2023-06-10T03:11:32;9.30;;;8.35;;
36715;SDS011;22699;51.034;3.730;2023-06-10T03:13:58;10.55;;;8.63;;
36715;SDS011;22699;51.034;3.730;2023-06-10T03:16:23;11.20;;;8.60;;
36715;SDS011;22699;51.034;3.730;2023-06-10T03:18:52;8.90;;;8.00;;
36715;SDS011;22699;51.034;3.730;2023-06-10T03:21:18;9.40;;;8.35;;
36715;SDS011;22699;51.034;3.730;2023-06-10T03:23:45;11.65;;;9.27;;
36715;SDS011;22699;51.034;3.730;2023-06-10T03:26:10;9.57;;;8.65;;
36715;SDS011;22699;51.034;3.730;2023-06-10T03:28:37;12.30;;;8.90;;
36715;SDS011;22699;51.034;3.730;2023-06-10T03:31:03;9.07;;;8.27;;
36715;SDS011;22699;51.034;3.730;2023-06-10T03:33:29;10.40;;;8.20;;
36715;SDS011;22699;51.034;3.730;2023-06-10T03:35:56;11.15;;;8.93;;
36715;SDS011;22699;51.034;3.730;2023-06-10T03:38:21;11.00;;;8.82;;
36715;SDS011;22699;51.034;3.730;2023-06-10T03:40:47;9.10;;;8.30;;
36715;SDS011;22699;51.034;3.730;2023-06-10T03:43:12;10.48;;;9.20;;
36715;SDS011;22699;51.034;3.730;2023-06-10T03:45:38;9.48;;;8.35;;
36715;SDS011;22699;51.034;3.730;2023-06-10T03:48:04;9.98;;;8.77;;
36715;SDS011;22699;51.034;3.730;2023-06-10T03:50:31;9.60;;;8.38;;
36715;SDS011;22699;51.034;3.730;2023-06-10T03:52:57;11.25;;;8.60;;
36715;SDS011;22699;51.034;3.730;2023-06-10T03:55:23;11.15;;;10.02;;
36715;SDS011;22699;51.034;3.730;2023-06-10T03:57:49;10.23;;;9.23;;
36715;SDS011;22699;51.034;3.730;2023-06-10T04:00:15;12.60;;;9.55;;
36715;SDS011;22699;51.034;3.730;2023-06-10T04:02:42;9.95;;;9.05;;
36715;SDS011;22699;51.034;3.730;2023-06-10T04:05:12;10.50;;;9.23;;
36715;SDS011;22699;51.034;3.730;2023-06-10T04:07:39;13.05;;;10.18;;
36715;SDS011;22699;51.034;3.730;2023-06-10T04:10:09;10.68;;;8.85;;
36715;SDS011;22699;51.034;3.730;2023-06-10T04:12:35;10.73;;;9.60;;
36715;SDS011;22699;51.034;3.730;2023-06-10T04:15:01;12.32;;;10.13;;
36715;SDS011;22699;51.034;3.730;2023-06-10T04:17:28;10.00;;;8.80;;
36715;SDS011;22699;51.034;3.730;2023-06-10T04:19:55;10.80;;;9.70;;
36715;SDS011;22699;51.034;3.730;2023-06-10T04:22:21;10.50;;;8.77;;
36715;SDS011;22699;51.034;3.730;2023-06-10T04:24:48;13.68;;;9.50;;
36715;SDS011;22699;51.034;3.730;2023-06-10T04:27:14;10.38;;;8.82;;
36715;SDS011;22699;51.034;3.730;2023-06-10T04:29:41;11.85;;;10.13;;
36715;SDS011;22699;51.034;3.730;2023-06-10T04:32:07;9.85;;;8.90;;
36715;SDS011;22699;51.034;3.730;2023-06-10T04:34:33;15.40;;;9.52;;
36715;SDS011;22699;51.034;3.730;2023-06-10T04:37:00;11.18;;;9.95;;
36715;SDS011;22699;51.034;3.730;2023-06-10T04:39:26;11.70;;;10.38;;
36715;SDS011;22699;51.034;3.730;2023-06-10T04:41:52;11.50;;;10.32;;
36715;SDS011;22699;51.034;3.730;2023-06-10T04:44:18;11.98;;;10.18;;
36715;SDS011;22699;51.034;3.730;2023-06-10T04:46:43;14.85;;;10.27;;
36715;SDS011;22699;51.034;3.730;2023-06-10T04:49:11;12.57;;;11.25;;
36715;SDS011;22699;51.034;3.730;2023-06-10T04:51:39;11.82;;;10.32;;
36715;SDS011;22699;51.034;3.730;2023-06-10T04:54:04;12.45;;;10.70;;
36715;SDS011;22699;51.034;3.730;2023-06-10T04:56:30;13.02;;;10.48;;
36715;SDS011;22699;51.034;3.730;2023-06-10T04:58:56;14.45;;;9.82;;
36715;SDS011;22699;51.034;3.730;2023-06-10T05:01:22;13.93;;;10.20;;
36715;SDS011;22699;51.034;3.730;2023-06-10T05:03:48;11.32;;;9.93;;
36715;SDS011;22699;51.034;3.730;2023-06-10T05:06:13;11.57;;;10.35;;
36715;SDS011;22699;51.034;3.730;2023-06-10T05:08:39;11.68;;;10.50;;
36715;SDS011;22699;51.034;3.730;2023-06-10T05:11:05;12.43;;;11.10;;
36715;SDS011;22699;51.034;3.730;2023-06-10T05:13:31;10.95;;;9.82;;
36715;SDS011;22699;51.034;3.730;2023-06-10T05:15:57;13.63;;;10.35;;
36715;SDS011;22699;51.034;3.730;2023-06-10T05:18:22;13.23;;;9.95;;
36715;SDS011;22699;51.034;3.730;2023-06-10T05:20:48;11.43;;;9.95;;
36715;SDS011;22699;51.034;3.730;2023-06-10T05:23:14;11.30;;;10.23;;
36715;SDS011;22699;51.034;3.730;2023-06-10T05:25:40;11.23;;;9.70;;
36715;SDS011;22699;51.034;3.730;2023-06-10T05:28:06;12.25;;;10.75;;
36715;SDS011;22699;51.034;3.730;2023-06-10T05:30:34;11.23;;;10.05;;
36715;SDS011;22699;51.034;3.730;2023-06-10T05:33:01;12.65;;;11.52;;
36715;SDS011;22699;51.034;3.730;2023-06-10T05:35:26;11.32;;;10.15;;
36715;SDS011;22699;51.034;3.730;2023-06-10T05:37:52;12.20;;;11.00;;
36715;SDS011;22699;51.034;3.730;2023-06-10T05:40:18;12.27;;;11.02;;
36715;SDS011;22699;51.034;3.730;2023-06-10T05:42:43;11.43;;;9.55;;
36715;SDS011;22699;51.034;3.730;2023-06-10T05:45:09;12.07;;;10.88;;
36715;SDS011;22699;51.034;3.730;2023-06-10T05:47:35;12.45;;;10.10;;
36715;SDS011;22699;51.034;3.730;2023-06-10T05:50:01;12.00;;;10.48;;
36715;SDS011;22699;51.034;3.730;2023-06-10T05:52:27;11.05;;;9.95;;
36715;SDS011;22699;51.034;3.730;2023-06-10T05:54:53;12.85;;;10.05;;
36715;SDS011;22699;51.034;3.730;2023-06-10T05:57:19;11.48;;;10.30;;
36715;SDS011;22699;51.034;3.730;2023-06-10T05:59:45;12.90;;;9.73;;
36715;SDS011;22699;51.034;3.730;2023-06-10T06:02:11;11.32;;;10.25;;
36715;SDS011;22699;51.034;3.730;2023-06-10T06:04:36;9.82;;;8.93;;
36715;SDS011;22699;51.034;3.730;2023-06-10T06:07:02;10.75;;;9.00;;
36715;SDS011;22699;51.034;3.730;2023-06-10T06:09:28;12.32;;;10.02;;
36715;SDS011;22699;51.034;3.730;2023-06-10T06:11:54;10.35;;;9.30;;
36715;SDS011;22699;51.034;3.730;2023-06-10T06:14:20;12.70;;;10.00;;
36715;SDS011;22699;51.034;3.730;2023-06-10T06:16:45;9.68;;;8.43;;
36715;SDS011;22699;51.034;3.730;2023-06-10T06:19:11;10.85;;;9.43;;
36715;SDS011;22699;51.034;3.730;2023-06-10T06:21:36;11.02;;;9.30;;
36715;SDS011;22699;51.034;3.730;2023-06-10T06:24:02;11.55;;;8.77;;
36715;SDS011;22699;51.034;3.730;2023-06-10T06:26:28;9.93;;;9.02;;
36715;SDS011;22699;51.034;3.730;2023-06-10T06:28:53;10.10;;;8.52;;
36715;SDS011;22699;51.034;3.730;2023-06-10T06:31:19;14.63;;;9.00;;
36715;SDS011;22699;51.034;3.730;2023-06-10T06:33:45;9.63;;;8.73;;
36715;SDS011;22699;51.034;3.730;2023-06-10T06:36:11;12.38;;;10.20;;
36715;SDS011;22699;51.034;3.730;2023-06-10T06:38:37;12.05;;;8.63;;
36715;SDS011;22699;51.034;3.730;2023-06-10T06:41:02;10.30;;;8.95;;
36715;SDS011;22699;51.034;3.730;2023-06-10T06:43:30;11.27;;;8.80;;
36715;SDS011;22699;51.034;3.730;2023-06-10T06:45:56;11.10;;;8.70;;
36715;SDS011;22699;51.034;3.730;2023-06-10T06:48:23;10.45;;;9.27;;
36715;SDS011;22699;51.034;3.730;2023-06-10T06:50:48;9.55;;;8.55;;
36715;SDS011;22699;51.034;3.730;2023-06-10T06:53:14;13.00;;;9.02;;
36715;SDS011;22699;51.034;3.730;2023-06-10T06:55:40;12.30;;;8.73;;
36715;SDS011;22699;51.034;3.730;2023-06-10T06:58:05;10.07;;;9.07;;
36715;SDS011;22699;51.034;3.730;2023-06-10T07:00:31;10.07;;;8.80;;
36715;SDS011;22699;51.034;3.730;2023-06-10T07:02:57;10.63;;;8.10;;
36715;SDS011;22699;51.034;3.730;2023-06-10T07:05:23;9.90;;;8.77;;
36715;SDS011;22699;51.034;3.730;2023-06-10T07:07:52;11.70;;;8.90;;
36715;SDS011;22699;51.034;3.730;2023-06-10T07:10:25;11.90;;;8.63;;
36715;SDS011;22699;51.034;3.730;2023-06-10T07:12:51;13.63;;;8.60;;
36715;SDS011;22699;51.034;3.730;2023-06-10T07:15:18;12.20;;;8.75;;
36715;SDS011;22699;51.034;3.730;2023-06-10T07:17:44;11.65;;;8.68;;
36715;SDS011;22699;51.034;3.730;2023-06-10T07:20:10;8.07;;;7.03;;
36715;SDS011;22699;51.034;3.730;2023-06-10T07:22:36;7.63;;;6.55;;
36715;SDS011;22699;51.034;3.730;2023-06-10T07:25:04;11.57;;;6.63;;
36715;SDS011;22699;51.034;3.730;2023-06-10T07:27:31;10.77;;;7.15;;
36715;SDS011;22699;51.034;3.730;2023-06-10T07:29:56;7.32;;;6.63;;
36715;SDS011;22699;51.034;3.730;2023-06-10T07:32:22;8.23;;;6.70;;
36715;SDS011;22699;51.034;3.730;2023-06-10T07:34:50;6.90;;;6.25;;
36715;SDS011;22699;51.034;3.730;2023-06-10T07:37:15;7.32;;;6.30;;
36715;SDS011;22699;51.034;3.730;2023-06-10T07:39:42;9.40;;;6.72;;
36715;SDS011;22699;51.034;3.730;2023-06-10T07:42:08;11.48;;;7.28;;
36715;SDS011;22699;51.034;3.730;2023-06-10T07:44:34;8.77;;;6.53;;
36715;SDS011;22699;51.034;3.730;2023-06-10T07:47:00;6.53;;;5.95;;
36715;SDS011;22699;51.034;3.730;2023-06-10T07:49:26;6.80;;;6.25;;
36715;SDS011;22699;51.034;3.730;2023-06-10T07:51:56;8.38;;;7.57;;
36715;SDS011;22699;51.034;3.730;2023-06-10T07:54:22;7.47;;;6.50;;
36715;SDS011;22699;51.034;3.730;2023-06-10T07:56:47;8.80;;;6.72;;
36715;SDS011;22699;51.034;3.730;2023-06-10T07:59:13;7.68;;;6.93;;
36715;SDS011;22699;51.034;3.730;2023-06-10T08:01:39;7.57;;;6.07;;
36715;SDS011;22699;51.034;3.730;2023-06-10T08:04:05;8.05;;;6.82;;
36715;SDS011;22699;51.034;3.730;2023-06-10T08:06:31;7.05;;;6.45;;
36715;SDS011;22699;51.034;3.730;2023-06-10T08:08:57;6.35;;;5.40;;
36715;SDS011;22699;51.034;3.730;2023-06-10T08:11:23;6.90;;;5.13;;
36715;SDS011;22699;51.034;3.730;2023-06-10T08:13:48;6.10;;;5.60;;
36715;SDS011;22699;51.034;3.730;2023-06-10T08:16:14;6.35;;;5.75;;
36715;SDS011;22699;51.034;3.730;2023-06-10T08:18:39;7.18;;;5.57;;
36715;SDS011;22699;51.034;3.730;2023-06-10T08:21:05;7.28;;;5.85;;
36715;SDS011;22699;51.034;3.730;2023-06-10T08:23:31;8.40;;;5.43;;
36715;SDS011;22699;51.034;3.730;2023-06-10T08:25:56;7.20;;;5.90;;
36715;SDS011;22699;51.034;3.730;2023-06-10T08:28:23;6.78;;;5.53;;
36715;SDS011;22699;51.034;3.730;2023-06-10T08:30:48;8.90;;;5.65;;
36715;SDS011;22699;51.034;3.730;2023-06-10T08:33:14;8.38;;;5.38;;
36715;SDS011;22699;51.034;3.730;2023-06-10T08:35:40;8.30;;;5.60;;
36715;SDS011;22699;51.034;3.730;2023-06-10T08:38:05;8.63;;;5.55;;
36715;SDS011;22699;51.034;3.730;2023-06-10T08:40:32;7.93;;;6.05;;
36715;SDS011;22699;51.034;3.730;2023-06-10T08:43:07;6.00;;;5.40;;
36715;SDS011;22699;51.034;3.730;2023-06-10T08:45:41;12.38;;;6.00;;
36715;SDS011;22699;51.034;3.730;2023-06-10T08:48:10;6.65;;;5.18;;
36715;SDS011;22699;51.034;3.730;2023-06-10T08:50:39;6.57;;;5.85;;
36715;SDS011;22699;51.034;3.730;2023-06-10T08:53:06;6.18;;;5.57;;
36715;SDS011;22699;51.034;3.730;2023-06-10T08:55:33;6.50;;;5.13;;
36715;SDS011;22699;51.034;3.730;2023-06-10T08:58:01;5.63;;;5.22;;
36715;SDS011;22699;51.034;3.730;2023-06-10T09:00:28;5.75;;;5.15;;
36715;SDS011;22699;51.034;3.730;2023-06-10T09:02:56;6.68;;;5.53;;
36715;SDS011;22699;51.034;3.730;2023-06-10T09:05:23;6.18;;;5.15;;
36715;SDS011;22699;51.034;3.730;2023-06-10T09:07:49;7.47;;;4.80;;
36715;SDS011;22699;51.034;3.730;2023-06-10T09:10:17;6.15;;;5.22;;
36715;SDS011;22699;51.034;3.730;2023-06-10T09:12:43;5.88;;;5.18;;
36715;SDS011;22699;51.034;3.730;2023-06-10T09:15:09;6.70;;;5.22;;
36715;SDS011;22699;51.034;3.730;2023-06-10T09:17:36;6.28;;;5.32;;
36715;SDS011;22699;51.034;3.730;2023-06-10T09:20:03;8.95;;;5.93;;
36715;SDS011;22699;51.034;3.730;2023-06-10T09:22:28;7.43;;;5.45;;
36715;SDS011;22699;51.034;3.730;2023-06-10T09:25:02;8.05;;;7.45;;
36715;SDS011;22699;51.034;3.730;2023-06-10T09:27:30;6.20;;;4.68;;
36715;SDS011;22699;51.034;3.730;2023-06-10T09:29:59;7.43;;;5.60;;
36715;SDS011;22699;51.034;3.730;2023-06-10T09:32:24;5.90;;;5.28;;
36715;SDS011;22699;51.034;3.730;2023-06-10T09:34:51;8.32;;;5.07;;
36715;SDS011;22699;51.034;3.730;2023-06-10T09:37:20;6.05;;;4.97;;
36715;SDS011;22699;51.034;3.730;2023-06-10T09:40:00;5.60;;;5.05;;
36715;SDS011;22699;51.034;3.730;2023-06-10T09:42:34;7.05;;;5.20;;
36715;SDS011;22699;51.034;3.730;2023-06-10T09:45:00;5.82;;;4.70;;
36715;SDS011;22699;51.034;3.730;2023-06-10T09:47:26;5.20;;;4.80;;
36715;SDS011;22699;51.034;3.730;2023-06-10T09:49:52;11.60;;;5.50;;
36715;SDS011;22699;51.034;3.730;2023-06-10T09:52:25;8.20;;;5.13;;
36715;SDS011;22699;51.034;3.730;2023-06-10T09:54:52;6.63;;;5.20;;
36715;SDS011;22699;51.034;3.730;2023-06-10T09:57:21;5.40;;;4.80;;
36715;SDS011;22699;51.034;3.730;2023-06-10T09:59:47;5.35;;;4.85;;
36715;SDS011;22699;51.034;3.730;2023-06-10T10:02:17;6.35;;;5.80;;
36715;SDS011;22699;51.034;3.730;2023-06-10T10:04:44;9.75;;;5.68;;
36715;SDS011;22699;51.034;3.730;2023-06-10T10:07:12;5.60;;;5.00;;
36715;SDS011;22699;51.034;3.730;2023-06-10T10:09:39;7.90;;;5.95;;
36715;SDS011;22699;51.034;3.730;2023-06-10T10:12:09;9.75;;;5.22;;
36715;SDS011;22699;51.034;3.730;2023-06-10T10:14:37;6.35;;;5.65;;
36715;SDS011;22699;51.034;3.730;2023-06-10T10:17:07;10.93;;;6.43;;
36715;SDS011;22699;51.034;3.730;2023-06-10T10:20:22;6.57;;;5.88;;
36715;SDS011;22699;51.034;3.730;2023-06-10T10:22:29;10.50;;;6.13;;
36715;SDS011;22699;51.034;3.730;2023-06-10T10:25:02;6.78;;;6.05;;
36715;SDS011;22699;51.034;3.730;2023-06-10T10:27:35;8.88;;;6.40;;
36715;SDS011;22699;51.034;3.730;2023-06-10T10:30:06;9.77;;;6.53;;
36715;SDS011;22699;51.034;3.730;2023-06-10T10:32:37;7.38;;;5.72;;
36715;SDS011;22699;51.034;3.730;2023-06-10T10:35:09;12.48;;;7.93;;
36715;SDS011;22699;51.034;3.730;2023-06-10T10:37:41;9.55;;;6.10;;
36715;SDS011;22699;51.034;3.730;2023-06-10T10:40:07;6.32;;;5.72;;
36715;SDS011;22699;51.034;3.730;2023-06-10T10:42:34;7.85;;;6.00;;
36715;SDS011;22699;51.034;3.730;2023-06-10T10:45:00;9.38;;;6.05;;
36715;SDS011;22699;51.034;3.730;2023-06-10T10:47:27;14.43;;;5.90;;
36715;SDS011;22699;51.034;3.730;2023-06-10T10:49:55;6.70;;;5.20;;
36715;SDS011;22699;51.034;3.730;2023-06-10T10:52:24;7.00;;;6.10;;
36715;SDS011;22699;51.034;3.730;2023-06-10T10:54:52;6.07;;;5.38;;
36715;SDS011;22699;51.034;3.730;2023-06-10T10:57:22;6.25;;;5.65;;
36715;SDS011;22699;51.034;3.730;2023-06-10T11:02:35;8.82;;;5.43;;
36715;SDS011;22699;51.034;3.730;2023-06-10T11:05:08;11.32;;;5.50;;
36715;SDS011;22699;51.034;3.730;2023-06-10T11:07:35;9.15;;;5.30;;
36715;SDS011;22699;51.034;3.730;2023-06-10T11:10:09;5.25;;;4.75;;
36715;SDS011;22699;51.034;3.730;2023-06-10T11:15:17;6.90;;;4.70;;
36715;SDS011;22699;51.034;3.730;2023-06-10T11:20:51;8.55;;;4.63;;
36715;SDS011;22699;51.034;3.730;2023-06-10T11:28:39;8.40;;;5.40;;
36715;SDS011;22699;51.034;3.730;2023-06-10T11:31:33;6.47;;;4.70;;
36715;SDS011;22699;51.034;3.730;2023-06-10T11:34:09;6.30;;;4.80;;
36715;SDS011;22699;51.034;3.730;2023-06-10T11:36:43;6.05;;;4.40;;
36715;SDS011;22699;51.034;3.730;2023-06-10T11:39:10;6.85;;;4.78;;
36715;SDS011;22699;51.034;3.730;2023-06-10T11:41:37;5.30;;;4.80;;
36715;SDS011;22699;51.034;3.730;2023-06-10T11:44:04;13.65;;;5.20;;
36715;SDS011;22699;51.034;3.730;2023-06-10T11:46:36;7.97;;;4.75;;
36715;SDS011;22699;51.034;3.730;2023-06-10T11:49:03;17.92;;;5.80;;
36715;SDS011;22699;51.034;3.730;2023-06-10T11:51:39;9.15;;;4.68;;
36715;SDS011;22699;51.034;3.730;2023-06-10T11:54:09;7.40;;;4.77;;
36715;SDS011;22699;51.034;3.730;2023-06-10T11:56:35;5.38;;;4.88;;
36715;SDS011;22699;51.034;3.730;2023-06-10T11:59:01;5.60;;;4.78;;
36715;SDS011;22699;51.034;3.730;2023-06-10T12:01:32;6.57;;;4.57;;
36715;SDS011;22699;51.034;3.730;2023-06-10T12:04:03;7.38;;;4.70;;
36715;SDS011;22699;51.034;3.730;2023-06-10T12:06:37;6.68;;;4.63;;
36715;SDS011;22699;51.034;3.730;2023-06-10T12:09:05;7.47;;;5.18;;
36715;SDS011;22699;51.034;3.730;2023-06-10T12:11:31;6.45;;;5.10;;
36715;SDS011;22699;51.034;3.730;2023-06-10T12:13:58;7.45;;;4.15;;
36715;SDS011;22699;51.034;3.730;2023-06-10T12:16:23;11.18;;;5.00;;
36715;SDS011;22699;51.034;3.730;2023-06-10T12:18:49;6.55;;;4.65;;
36715;SDS011;22699;51.034;3.730;2023-06-10T12:21:25;5.60;;;4.57;;
36715;SDS011;22699;51.034;3.730;2023-06-10T12:24:01;6.78;;;4.60;;
36715;SDS011;22699;51.034;3.730;2023-06-10T12:26:34;4.88;;;4.47;;
36715;SDS011;22699;51.034;3.730;2023-06-10T12:29:02;5.70;;;5.13;;
36715;SDS011;22699;51.034;3.730;2023-06-10T12:34:29;6.20;;;4.63;;
36715;SDS011;22699;51.034;3.730;2023-06-10T12:36:54;5.28;;;4.60;;
36715;SDS011;22699;51.034;3.730;2023-06-10T12:39:20;4.95;;;4.38;;
36715;SDS011;22699;51.034;3.730;2023-06-10T12:41:47;8.68;;;5.05;;
36715;SDS011;22699;51.034;3.730;2023-06-10T12:44:15;5.18;;;4.68;;
36715;SDS011;22699;51.034;3.730;2023-06-10T12:46:41;7.15;;;5.35;;
36715;SDS011;22699;51.034;3.730;2023-06-10T12:49:07;8.05;;;4.78;;
36715;SDS011;22699;51.034;3.730;2023-06-10T12:51:32;6.07;;;4.95;;
36715;SDS011;22699;51.034;3.730;2023-06-10T12:53:59;8.10;;;5.07;;
36715;SDS011;22699;51.034;3.730;2023-06-10T12:56:25;5.00;;;4.60;;
36715;SDS011;22699;51.034;3.730;2023-06-10T12:58:50;8.00;;;4.75;;
36715;SDS011;22699;51.034;3.730;2023-06-10T13:01:16;6.05;;;5.00;;
36715;SDS011;22699;51.034;3.730;2023-06-10T13:03:42;20.10;;;5.72;;
36715;SDS011;22699;51.034;3.730;2023-06-10T13:06:07;5.20;;;4.70;;
36715;SDS011;22699;51.034;3.730;2023-06-10T13:08:33;7.10;;;4.93;;
36715;SDS011;22699;51.034;3.730;2023-06-10T13:10:59;19.10;;;5.30;;
36715;SDS011;22699;51.034;3.730;2023-06-10T13:13:25;7.43;;;5.65;;
36715;SDS011;22699;51.034;3.730;2023-06-10T13:15:51;8.98;;;4.88;;
36715;SDS011;22699;51.034;3.730;2023-06-10T13:18:17;6.88;;;5.13;;
36715;SDS011;22699;51.034;3.730;2023-06-10T13:20:45;8.07;;;4.95;;
36715;SDS011;22699;51.034;3.730;2023-06-10T13:23:11;7.55;;;5.07;;
36715;SDS011;22699;51.034;3.730;2023-06-10T13:25:37;5.45;;;4.95;;
36715;SDS011;22699;51.034;3.730;2023-06-10T13:28:03;7.00;;;4.75;;
36715;SDS011;22699;51.034;3.730;2023-06-10T13:30:28;9.45;;;7.18;;
36715;SDS011;22699;51.034;3.730;2023-06-10T13:32:54;9.95;;;5.22;;
36715;SDS011;22699;51.034;3.730;2023-06-10T13:35:20;8.43;;;5.40;;
36715;SDS011;22699;51.034;3.730;2023-06-10T13:37:45;7.47;;;5.30;;
36715;SDS011;22699;51.034;3.730;2023-06-10T13:40:11;9.40;;;5.70;;
36715;SDS011;22699;51.034;3.730;2023-06-10T13:42:37;7.55;;;5.28;;
36715;SDS011;22699;51.034;3.730;2023-06-10T13:45:03;6.50;;;5.93;;
36715;SDS011;22699;51.034;3.730;2023-06-10T13:47:30;7.82;;;5.47;;
36715;SDS011;22699;51.034;3.730;2023-06-10T13:49:55;6.10;;;5.50;;
36715;SDS011;22699;51.034;3.730;2023-06-10T13:52:21;7.60;;;6.03;;
36715;SDS011;22699;51.034;3.730;2023-06-10T13:54:46;6.05;;;5.55;;
36715;SDS011;22699;51.034;3.730;2023-06-10T13:57:12;9.77;;;5.00;;
36715;SDS011;22699;51.034;3.730;2023-06-10T13:59:38;7.35;;;6.15;;
36715;SDS011;22699;51.034;3.730;2023-06-10T14:02:03;6.78;;;4.82;;
36715;SDS011;22699;51.034;3.730;2023-06-10T14:04:29;6.03;;;5.15;;
36715;SDS011;22699;51.034;3.730;2023-06-10T14:06:55;5.88;;;5.35;;
36715;SDS011;22699;51.034;3.730;2023-06-10T14:09:22;6.97;;;4.97;;
36715;SDS011;22699;51.034;3.730;2023-06-10T14:11:48;6.80;;;5.05;;
36715;SDS011;22699;51.034;3.730;2023-06-10T14:14:14;9.00;;;5.32;;
36715;SDS011;22699;51.034;3.730;2023-06-10T14:16:41;6.07;;;4.95;;
36715;SDS011;22699;51.034;3.730;2023-06-10T14:19:06;5.97;;;5.47;;
36715;SDS011;22699;51.034;3.730;2023-06-10T14:21:32;5.90;;;5.30;;
36715;SDS011;22699;51.034;3.730;2023-06-10T14:23:58;7.95;;;5.65;;
36715;SDS011;22699;51.034;3.730;2023-06-10T14:26:23;5.88;;;5.10;;
36715;SDS011;22699;51.034;3.730;2023-06-10T14:28:51;5.45;;;5.00;;
36715;SDS011;22699;51.034;3.730;2023-06-10T14:31:18;15.38;;;5.45;;
36715;SDS011;22699;51.034;3.730;2023-06-10T14:33:44;6.75;;;5.15;;
36715;SDS011;22699;51.034;3.730;2023-06-10T14:36:10;8.18;;;5.60;;
36715;SDS011;22699;51.034;3.730;2023-06-10T14:38:37;7.32;;;5.10;;
36715;SDS011;22699;51.034;3.730;2023-06-10T14:41:02;6.05;;;5.32;;
36715;SDS011;22699;51.034;3.730;2023-06-10T14:43:28;5.95;;;5.43;;
36715;SDS011;22699;51.034;3.730;2023-06-10T14:45:54;6.43;;;5.18;;
36715;SDS011;22699;51.034;3.730;2023-06-10T14:48:21;5.97;;;5.25;;
36715;SDS011;22699;51.034;3.730;2023-06-10T14:50:46;6.80;;;5.22;;
36715;SDS011;22699;51.034;3.730;2023-06-10T14:53:16;7.20;;;5.03;;
36715;SDS011;22699;51.034;3.730;2023-06-10T14:55:44;5.93;;;5.33;;
36715;SDS011;22699;51.034;3.730;2023-06-10T14:58:10;6.22;;;4.65;;
36715;SDS011;22699;51.034;3.730;2023-06-10T15:00:36;5.18;;;4.72;;
36715;SDS011;22699;51.034;3.730;2023-06-10T15:03:02;9.02;;;5.22;;
36715;SDS011;22699;51.034;3.730;2023-06-10T15:05:27;9.43;;;5.40;;
36715;SDS011;22699;51.034;3.730;2023-06-10T15:07:53;6.10;;;5.60;;